createdAt,value
2019-04-21T00:00:11.873Z,12.00
2019-04-21T00:03:12.892Z,11.90
2019-04-21T00:06:25.048Z,12.00
2019-04-21T00:12:57.414Z,11.80
2019-04-21T00:19:33.195Z,11.60
2019-04-21T01:05:19.868Z,10.70
2019-04-21T01:07:48.259Z,10.60
2019-04-21T01:14:34.553Z,10.50
2019-04-21T01:30:31.215Z,10.40
2019-04-21T01:33:09.487Z,10.50
2019-04-21T01:44:44.472Z,10.40
2019-04-21T01:47:14.588Z,10.20
2019-04-21T01:50:01.576Z,9.90
2019-04-21T01:52:49.927Z,9.90
2019-04-21T01:55:25.177Z,9.70
2019-04-21T01:58:07.766Z,9.60
2019-04-21T02:01:03.559Z,9.70
2019-04-21T02:07:01.337Z,9.50
2019-04-21T02:10:22.558Z,9.40
2019-04-21T02:12:56.622Z,9.40
2019-04-21T02:15:56.089Z,9.20
2019-04-21T02:18:33.914Z,9.20
2019-04-21T02:21:00.459Z,9.20
2019-04-21T02:24:23.575Z,9.10
2019-04-21T02:27:08.586Z,9.10
2019-04-21T02:29:55.907Z,9.10
2019-04-21T02:32:49.997Z,9.20
2019-04-21T02:35:30.195Z,9.10
2019-04-21T02:39:10.527Z,9.00
2019-04-21T03:07:47.737Z,8.90
2019-04-21T03:56:44.753Z,8.00
2019-04-21T04:03:35.264Z,7.80
2019-04-21T04:10:08.256Z,7.60
2019-04-21T04:19:42.221Z,7.60
2019-04-21T04:22:37.869Z,7.60
2019-04-21T04:25:13.320Z,7.60
2019-04-21T04:56:20.765Z,7.60
2019-04-21T05:29:19.424Z,7.70
2019-04-21T05:32:36.219Z,7.80
2019-04-21T05:35:21.301Z,8.10
2019-04-21T05:38:14.002Z,8.40
2019-04-21T05:40:45.656Z,8.50
2019-04-21T05:43:28.433Z,8.80
2019-04-21T05:49:32.745Z,9.60
2019-04-21T05:52:02.505Z,9.80
2019-04-21T05:57:11.028Z,10.10
2019-04-21T05:59:53.723Z,10.30
2019-04-21T06:02:22.282Z,10.30
2019-04-21T06:07:24.015Z,10.30
2019-04-21T06:09:57.314Z,10.40
2019-04-21T06:12:23.572Z,10.50
2019-04-21T06:14:56.013Z,10.80
2019-04-21T06:17:25.356Z,11.40
2019-04-21T06:22:19.409Z,12.00
2019-04-21T06:25:21.615Z,12.20
2019-04-21T06:27:29.851Z,12.30
2019-04-21T06:29:57.534Z,12.40
2019-04-21T06:32:38.610Z,12.30
2019-04-21T06:37:57.051Z,12.70
2019-04-21T06:43:03.254Z,13.20
2019-04-21T06:45:24.375Z,13.40
2019-04-21T06:47:57.433Z,13.40
2019-04-21T06:50:22.885Z,13.40
2019-04-21T06:55:19.885Z,13.70
2019-04-21T06:57:48.005Z,13.90
2019-04-21T07:00:18.522Z,14.10
2019-04-21T07:02:54.580Z,14.30
2019-04-21T07:05:22.782Z,14.40
2019-04-21T07:08:06.278Z,14.60
2019-04-21T07:10:22.466Z,14.90
2019-04-21T07:12:47.947Z,14.50
2019-04-21T07:15:22.389Z,14.50
2019-04-21T07:17:45.043Z,14.70
2019-04-21T07:20:18.827Z,15.20
2019-04-21T07:22:47.867Z,15.40
2019-04-21T07:25:22.635Z,15.00
2019-04-21T07:27:52.366Z,15.40
2019-04-21T07:30:24.324Z,15.70
2019-04-21T07:32:56.305Z,16.10
2019-04-21T07:35:22.088Z,16.40
2019-04-21T07:37:48.125Z,16.80
2019-04-21T07:40:15.010Z,16.90
2019-04-21T07:42:49.812Z,17.10
2019-04-21T07:45:17.894Z,17.50
2019-04-21T07:48:00.890Z,17.70
2019-04-21T07:51:37.791Z,17.80
2019-04-21T07:54:26.909Z,18.00
2019-04-21T07:56:34.947Z,18.30
2019-04-21T07:59:23.877Z,18.40
2019-04-21T08:01:53.187Z,18.60
2019-04-21T08:04:38.906Z,18.70
2019-04-21T08:06:52.201Z,18.60
2019-04-21T08:09:19.536Z,18.60
2019-04-21T08:11:44.201Z,19.00
2019-04-21T08:14:17.787Z,19.50
2019-04-21T08:16:51.170Z,19.90
2019-04-21T08:19:18.578Z,20.00
2019-04-21T08:24:20.035Z,20.20
2019-04-21T08:26:51.430Z,20.30
2019-04-21T08:29:29.724Z,20.50
2019-04-21T08:31:56.472Z,20.80
2019-04-21T08:34:25.516Z,20.80
2019-04-21T08:36:52.756Z,20.70
2019-04-21T08:39:24.882Z,20.70
2019-04-21T08:41:50.996Z,20.60
2019-04-21T08:44:27.300Z,20.80
2019-04-21T08:46:55.143Z,21.00
2019-04-21T08:49:20.590Z,21.20
2019-04-21T08:51:53.653Z,21.40
2019-04-21T08:54:23.575Z,21.40
2019-04-21T08:57:07.808Z,21.60
2019-04-21T09:00:16.800Z,21.50
2019-04-21T09:02:56.124Z,21.60
2019-04-21T09:05:26.169Z,21.80
2019-04-21T09:07:57.424Z,21.80
2019-04-21T09:10:28.090Z,21.90
2019-04-21T09:12:58.865Z,21.80
2019-04-21T09:15:31.074Z,21.90
2019-04-21T09:17:53.378Z,22.00
2019-04-21T09:20:32.839Z,22.20
2019-04-21T09:23:00.706Z,22.40
2019-04-21T09:25:33.378Z,22.60
2019-04-21T09:28:00.672Z,22.60
2019-04-21T09:30:10.912Z,22.70
2019-04-21T09:32:40.378Z,22.70
2019-04-21T09:35:11.253Z,22.80
2019-04-21T09:37:47.310Z,22.90
2019-04-21T09:40:08.947Z,22.90
2019-04-21T09:42:47.541Z,23.00
2019-04-21T09:45:11.977Z,23.00
2019-04-21T09:47:47.062Z,23.30
2019-04-21T09:50:15.194Z,23.50
2019-04-21T09:52:49.999Z,23.70
2019-04-21T09:55:17.882Z,23.80
2019-04-21T09:57:50.055Z,24.00
2019-04-21T10:00:19.478Z,24.10
2019-04-21T10:02:54.711Z,24.00
2019-04-21T10:05:14.560Z,23.80
2019-04-21T10:07:44.216Z,23.60
2019-04-21T10:10:13.044Z,23.50
2019-04-21T10:12:41.157Z,23.40
2019-04-21T10:15:12.123Z,23.50
2019-04-21T10:17:44.005Z,23.70
2019-04-21T10:20:13.839Z,23.70
2019-04-21T10:23:09.303Z,23.80
2019-04-21T10:25:28.744Z,23.60
2019-04-21T10:27:58.958Z,23.40
2019-04-21T10:30:30.683Z,23.40
2019-04-21T10:32:58.551Z,23.60
2019-04-21T10:35:28.972Z,23.60
2019-04-21T10:38:12.874Z,23.70
2019-04-21T10:40:32.109Z,23.60
2019-04-21T10:42:58.362Z,23.30
2019-04-21T10:45:28.772Z,23.20
2019-04-21T10:47:56.843Z,23.30
2019-04-21T10:50:24.601Z,23.30
2019-04-21T10:53:16.596Z,23.30
2019-04-21T10:55:56.437Z,23.30
2019-04-21T10:58:36.175Z,23.40
2019-04-21T11:01:08.559Z,23.40
2019-04-21T11:03:53.122Z,23.50
2019-04-21T11:06:21.079Z,23.70
2019-04-21T11:08:52.369Z,23.70
2019-04-21T11:11:18.127Z,23.80
2019-04-21T11:13:46.425Z,24.00
2019-04-21T11:16:15.075Z,24.00
2019-04-21T11:18:44.015Z,24.10
2019-04-21T11:21:13.059Z,24.40
2019-04-21T11:23:40.694Z,24.40
2019-04-21T11:26:08.125Z,24.10
2019-04-21T11:28:36.761Z,24.00
2019-04-21T11:31:04.874Z,24.20
2019-04-21T11:33:33.397Z,24.40
2019-04-21T11:36:01.454Z,24.40
2019-04-21T11:38:54.277Z,24.30
2019-04-21T11:41:08.202Z,24.40
2019-04-21T11:43:37.020Z,24.50
2019-04-21T11:46:22.898Z,24.20
2019-04-21T11:49:06.337Z,24.10
2019-04-21T11:51:37.946Z,24.10
2019-04-21T11:54:06.856Z,24.10
2019-04-21T11:56:38.898Z,24.00
2019-04-21T11:59:07.965Z,24.10
2019-04-21T12:01:36.016Z,24.00
2019-04-21T12:04:05.407Z,24.10
2019-04-21T12:06:39.707Z,24.20
2019-04-21T12:09:04.763Z,24.10
2019-04-21T12:11:31.665Z,24.10
2019-04-21T12:14:00.307Z,23.90
2019-04-21T12:16:29.022Z,24.00
2019-04-21T12:18:58.789Z,24.00
2019-04-21T12:21:29.383Z,24.10
2019-04-21T12:23:56.594Z,24.10
2019-04-21T12:26:26.414Z,24.10
2019-04-21T12:28:55.657Z,23.90
2019-04-21T12:31:41.421Z,24.00
2019-04-21T12:34:10.807Z,24.10
2019-04-21T12:36:40.003Z,24.30
2019-04-21T12:39:10.564Z,24.50
2019-04-21T12:41:40.591Z,24.40
2019-04-21T12:44:08.780Z,24.30
2019-04-21T12:46:36.415Z,24.20
2019-04-21T12:49:04.220Z,24.30
2019-04-21T12:51:31.893Z,24.30
2019-04-21T12:53:59.561Z,24.40
2019-04-21T12:56:27.574Z,24.30
2019-04-21T12:58:55.375Z,24.30
2019-04-21T13:01:23.159Z,24.20
2019-04-21T13:03:52.040Z,24.30
2019-04-21T13:06:19.610Z,24.40
2019-04-21T13:08:54.484Z,24.20
2019-04-21T13:11:17.161Z,24.20
2019-04-21T13:13:45.895Z,24.10
2019-04-21T13:16:13.703Z,24.20
2019-04-21T13:18:41.834Z,24.30
2019-04-21T13:21:09.902Z,24.40
2019-04-21T13:23:39.042Z,24.40
2019-04-21T13:26:08.254Z,24.50
2019-04-21T13:28:37.511Z,24.60
2019-04-21T13:31:06.485Z,24.40
2019-04-21T13:33:35.200Z,24.50
2019-04-21T13:36:02.907Z,24.50
2019-04-21T13:38:38.717Z,24.40
2019-04-21T13:41:32.598Z,24.40
2019-04-21T13:43:48.889Z,24.40
2019-04-21T13:46:17.682Z,24.40
2019-04-21T13:48:46.522Z,24.40
2019-04-21T13:51:15.375Z,24.40
2019-04-21T13:53:43.907Z,24.40
2019-04-21T13:56:11.678Z,24.30
2019-04-21T13:58:40.156Z,24.20
2019-04-21T14:01:07.888Z,24.20
2019-04-21T14:03:37.720Z,24.30
2019-04-21T14:06:06.701Z,24.40
2019-04-21T14:08:34.491Z,24.50
2019-04-21T14:11:02.312Z,24.50
2019-04-21T14:13:30.359Z,24.30
2019-04-21T14:15:58.029Z,24.40
2019-04-21T14:18:26.806Z,24.50
2019-04-21T14:20:55.431Z,24.50
2019-04-21T14:23:32.432Z,24.60
2019-04-21T14:25:53.356Z,24.70
2019-04-21T14:28:21.962Z,24.60
2019-04-21T14:30:50.456Z,24.60
2019-04-21T14:33:18.299Z,24.60
2019-04-21T14:35:47.025Z,24.60
2019-04-21T14:38:14.640Z,24.50
2019-04-21T14:40:42.122Z,24.60
2019-04-21T14:43:10.167Z,24.60
2019-04-21T14:45:45.543Z,24.60
2019-04-21T14:48:39.237Z,24.60
2019-04-21T14:51:29.689Z,24.60
2019-04-21T14:54:15.407Z,24.60
2019-04-21T14:56:43.130Z,24.50
2019-04-21T14:59:11.000Z,24.60
2019-04-21T15:01:39.841Z,24.60
2019-04-21T15:04:08.016Z,24.60
2019-04-21T15:06:35.506Z,24.50
2019-04-21T15:09:05.567Z,24.50
2019-04-21T15:11:33.788Z,24.50
2019-04-21T15:14:02.016Z,24.60
2019-04-21T15:16:31.102Z,24.60
2019-04-21T15:18:59.068Z,24.50
2019-04-21T15:21:27.599Z,24.50
2019-04-21T15:23:56.220Z,24.40
2019-04-21T15:26:24.173Z,24.30
2019-04-21T15:28:52.831Z,24.40
2019-04-21T15:31:28.794Z,24.40
2019-04-21T15:33:49.763Z,24.40
2019-04-21T15:36:18.726Z,24.40
2019-04-21T15:38:47.760Z,24.50
2019-04-21T15:41:16.428Z,24.50
2019-04-21T15:43:44.736Z,24.60
2019-04-21T15:46:13.046Z,24.60
2019-04-21T15:48:41.209Z,24.60
2019-04-21T15:51:09.306Z,24.60
2019-04-21T15:53:39.592Z,24.50
2019-04-21T15:56:44.836Z,24.50
2019-04-21T15:59:18.776Z,24.40
2019-04-21T16:01:54.520Z,24.40
2019-04-21T16:04:23.039Z,24.40
2019-04-21T16:06:50.439Z,24.50
2019-04-21T16:09:21.608Z,24.50
2019-04-21T16:11:47.190Z,24.50
2019-04-21T16:14:14.684Z,24.40
2019-04-21T16:16:43.294Z,24.50
2019-04-21T16:19:12.133Z,24.50
2019-04-21T16:21:42.448Z,24.40
2019-04-21T16:24:09.084Z,24.40
2019-04-21T16:26:36.578Z,24.40
2019-04-21T16:29:05.012Z,24.40
2019-04-21T16:31:32.631Z,24.30
2019-04-21T16:34:01.027Z,24.30
2019-04-21T16:36:29.574Z,24.30
2019-04-21T16:38:57.643Z,24.30
2019-04-21T16:41:26.472Z,24.30
2019-04-21T16:43:55.435Z,24.30
2019-04-21T16:46:23.310Z,24.40
2019-04-21T16:48:55.835Z,24.30
2019-04-21T16:51:24.207Z,24.20
2019-04-21T16:54:01.933Z,24.20
2019-04-21T16:56:43.907Z,24.10
2019-04-21T16:59:26.395Z,24.10
2019-04-21T17:01:54.476Z,24.00
2019-04-21T17:04:22.266Z,24.10
2019-04-21T17:06:51.178Z,24.10
2019-04-21T17:09:18.925Z,24.00
2019-04-21T17:11:46.960Z,24.10
2019-04-21T17:14:33.045Z,24.10
2019-04-21T17:17:11.386Z,24.00
2019-04-21T17:19:22.041Z,24.00
2019-04-21T17:21:43.784Z,23.90
2019-04-21T17:24:12.568Z,23.80
2019-04-21T17:26:42.634Z,23.80
2019-04-21T17:29:10.444Z,23.80
2019-04-21T17:31:39.295Z,23.90
2019-04-21T17:34:12.424Z,23.90
2019-04-21T17:36:37.114Z,23.90
2019-04-21T17:39:06.833Z,23.90
2019-04-21T17:41:42.509Z,23.90
2019-04-21T17:44:04.476Z,23.90
2019-04-21T17:46:42.117Z,23.80
2019-04-21T17:49:05.199Z,23.60
2019-04-21T17:52:01.074Z,23.50
2019-04-21T17:54:39.015Z,23.40
2019-04-21T17:57:23.272Z,23.30
2019-04-21T18:02:29.782Z,23.10
2019-04-21T18:04:58.579Z,23.10
2019-04-21T18:07:27.503Z,23.10
2019-04-21T18:12:31.822Z,23.00
2019-04-21T18:14:56.508Z,23.00
2019-04-21T18:17:14.438Z,23.00
2019-04-21T18:19:45.750Z,22.90
2019-04-21T18:22:41.773Z,22.80
2019-04-21T18:25:12.595Z,22.70
2019-04-21T18:27:38.838Z,22.60
2019-04-21T18:30:46.892Z,22.40
2019-04-21T18:33:23.471Z,22.30
2019-04-21T18:36:02.922Z,22.10
2019-04-21T18:38:57.059Z,22.00
2019-04-21T18:41:07.694Z,21.90
2019-04-21T18:44:11.575Z,21.90
2019-04-21T18:46:33.097Z,21.80
2019-04-21T18:48:53.431Z,21.70
2019-04-21T18:51:35.849Z,21.60
2019-04-21T18:54:27.191Z,21.60
2019-04-21T18:56:33.796Z,21.50
2019-04-21T18:59:02.598Z,21.40
2019-04-21T19:01:33.314Z,21.30
2019-04-21T19:04:00.440Z,21.30
2019-04-21T19:06:45.872Z,21.20
2019-04-21T19:09:20.008Z,21.00
2019-04-21T19:11:45.876Z,20.70
2019-04-21T19:14:28.494Z,20.70
2019-04-21T19:16:49.688Z,20.50
2019-04-21T19:21:46.980Z,20.10
2019-04-21T19:24:25.345Z,20.10
2019-04-21T19:26:52.437Z,20.00
2019-04-21T19:29:24.411Z,19.80
2019-04-21T19:31:49.587Z,19.50
2019-04-21T19:34:05.848Z,19.40
2019-04-21T19:36:30.718Z,19.20
2019-04-21T19:39:06.505Z,19.00
2019-04-21T19:41:41.158Z,19.00
2019-04-21T19:44:14.257Z,18.90
2019-04-21T19:46:38.045Z,18.80
2019-04-21T19:49:22.793Z,18.70
2019-04-21T19:51:37.934Z,18.70
2019-04-21T19:54:09.905Z,18.70
2019-04-21T19:56:30.352Z,18.60
2019-04-21T19:59:03.673Z,18.50
2019-04-21T20:01:51.290Z,18.40
2019-04-21T20:04:20.039Z,18.30
2019-04-21T20:07:01.121Z,18.10
2019-04-21T20:09:36.711Z,17.90
2019-04-21T20:12:09.350Z,17.70
2019-04-21T20:15:08.911Z,17.60
2019-04-21T20:17:10.013Z,17.50
2019-04-21T20:19:32.158Z,17.50
2019-04-21T20:22:09.524Z,17.40
2019-04-21T20:24:39.496Z,17.40
2019-04-21T20:27:17.689Z,17.20
2019-04-21T20:29:57.637Z,17.20
2019-04-21T20:32:34.324Z,17.10
2019-04-21T20:35:14.700Z,17.00
2019-04-21T20:37:45.664Z,16.80
2019-04-21T20:40:04.400Z,16.80
2019-04-21T20:42:47.060Z,16.60
2019-04-21T20:47:40.524Z,16.50
2019-04-21T20:50:19.738Z,16.50
2019-04-21T20:52:55.134Z,16.40
2019-04-21T20:55:17.295Z,16.40
2019-04-21T20:57:49.312Z,16.30
2019-04-21T21:00:32.635Z,16.00
2019-04-21T21:03:07.120Z,16.00
2019-04-21T21:05:27.468Z,16.00
2019-04-21T21:08:14.974Z,15.90
2019-04-21T21:10:36.972Z,15.80
2019-04-21T21:13:14.506Z,15.60
2019-04-21T21:15:36.435Z,15.50
2019-04-21T21:18:15.583Z,15.60
2019-04-21T21:20:35.463Z,15.50
2019-04-21T21:23:02.894Z,15.50
2019-04-21T21:25:48.475Z,15.50
2019-04-21T21:28:02.969Z,15.50
2019-04-21T21:30:34.618Z,15.50
2019-04-21T21:33:11.283Z,15.40
2019-04-21T21:35:39.664Z,15.30
2019-04-21T21:38:19.711Z,15.30
2019-04-21T21:40:45.548Z,15.40
2019-04-21T21:43:01.561Z,15.40
2019-04-21T21:45:30.796Z,15.50
2019-04-21T21:48:11.474Z,15.50
2019-04-21T21:50:42.372Z,15.50
2019-04-21T21:53:03.308Z,15.50
2019-04-21T21:55:27.787Z,15.40
2019-04-21T21:57:58.807Z,15.40
2019-04-21T22:00:26.326Z,15.30
2019-04-21T22:02:56.641Z,15.20
2019-04-21T22:05:42.098Z,15.20
2019-04-21T22:08:02.492Z,15.10
2019-04-21T22:10:34.850Z,15.00
2019-04-21T22:13:11.816Z,14.90
2019-04-21T22:15:35.571Z,14.90
2019-04-21T22:18:24.715Z,14.90
2019-04-21T22:20:47.529Z,14.80
2019-04-21T22:23:09.456Z,14.80
2019-04-21T22:25:36.779Z,14.50
2019-04-21T22:28:01.916Z,14.50
2019-04-21T22:30:38.547Z,14.50
2019-04-21T22:33:04.521Z,14.50
2019-04-21T22:35:37.863Z,14.50
2019-04-21T22:38:16.185Z,14.50
2019-04-21T22:40:44.293Z,14.40
2019-04-21T22:43:09.927Z,14.40
2019-04-21T22:45:27.297Z,14.30
2019-04-21T22:47:58.708Z,14.20
2019-04-21T22:50:26.977Z,14.10
2019-04-21T22:53:01.510Z,14.10
2019-04-21T22:55:27.434Z,14.00
2019-04-21T22:57:57.898Z,14.00
2019-04-21T23:00:24.045Z,13.90
2019-04-21T23:02:53.966Z,13.70
2019-04-21T23:05:28.295Z,13.50
2019-04-21T23:07:58.069Z,13.30
2019-04-21T23:10:23.295Z,13.20
2019-04-21T23:12:52.052Z,13.30
2019-04-21T23:15:28.287Z,13.30
2019-04-21T23:18:08.902Z,13.30
2019-04-21T23:20:41.988Z,13.20
2019-04-21T23:23:14.366Z,13.20
2019-04-21T23:25:36.495Z,13.20
2019-04-21T23:28:09.107Z,13.10
2019-04-21T23:30:45.898Z,12.90
2019-04-21T23:32:57.229Z,12.90
2019-04-21T23:35:25.909Z,12.90
2019-04-21T23:37:56.103Z,12.80
2019-04-21T23:40:21.365Z,12.70
2019-04-21T23:42:47.173Z,12.80
2019-04-21T23:45:18.350Z,12.60
2019-04-21T23:47:57.880Z,12.60
2019-04-21T23:50:25.365Z,12.50
2019-04-21T23:52:43.696Z,12.50
2019-04-21T23:55:11.617Z,12.50
2019-04-21T23:57:43.209Z,12.60
